sensor_id;sensor_type;location;lat;lon;timestamp;P1;durP1;ratioP1;P2;durP2;ratioP2
83290;SDS011;73194;48.866;9.316;2023-10-19T00:02:14;14.00;;;9.90;;
83290;SDS011;73194;48.866;9.316;2023-10-19T00:04:45;16.10;;;10.10;;
83290;SDS011;73194;48.866;9.316;2023-10-19T00:07:15;12.40;;;8.80;;
83290;SDS011;73194;48.866;9.316;2023-10-19T00:09:45;12.20;;;8.90;;
83290;SDS011;73194;48.866;9.316;2023-10-19T00:12:19;12.30;;;9.00;;
83290;SDS011;73194;48.866;9.316;2023-10-19T00:14:48;14.30;;;9.60;;
83290;SDS011;73194;48.866;9.316;2023-10-19T00:17:19;12.10;;;9.20;;
83290;SDS011;73194;48.866;9.316;2023-10-19T00:19:48;11.90;;;8.50;;
83290;SDS011;73194;48.866;9.316;2023-10-19T00:22:44;14.00;;;9.50;;
83290;SDS011;73194;48.866;9.316;2023-10-19T00:25:15;12.40;;;8.70;;
83290;SDS011;73194;48.866;9.316;2023-10-19T00:27:44;12.60;;;9.00;;
83290;SDS011;73194;48.866;9.316;2023-10-19T00:30:15;13.80;;;8.80;;
83290;SDS011;73194;48.866;9.316;2023-10-19T00:32:50;12.30;;;7.80;;
83290;SDS011;73194;48.866;9.316;2023-10-19T00:35:20;11.80;;;8.60;;
83290;SDS011;73194;48.866;9.316;2023-10-19T00:38:00;13.00;;;8.40;;
83290;SDS011;73194;48.866;9.316;2023-10-19T00:40:54;12.60;;;8.30;;
83290;SDS011;73194;48.866;9.316;2023-10-19T00:43:31;11.30;;;7.80;;
83290;SDS011;73194;48.866;9.316;2023-10-19T00:46:02;13.70;;;8.50;;
83290;SDS011;73194;48.866;9.316;2023-10-19T00:48:35;11.70;;;7.70;;
83290;SDS011;73194;48.866;9.316;2023-10-19T00:51:06;12.90;;;8.80;;
83290;SDS011;73194;48.866;9.316;2023-10-19T00:53:36;12.80;;;7.70;;
83290;SDS011;73194;48.866;9.316;2023-10-19T00:56:08;10.80;;;7.30;;
83290;SDS011;73194;48.866;9.316;2023-10-19T00:58:38;14.00;;;7.70;;
83290;SDS011;73194;48.866;9.316;2023-10-19T01:01:08;11.00;;;7.30;;
83290;SDS011;73194;48.866;9.316;2023-10-19T01:03:37;11.20;;;7.30;;
83290;SDS011;73194;48.866;9.316;2023-10-19T01:06:07;10.00;;;6.80;;
83290;SDS011;73194;48.866;9.316;2023-10-19T01:08:39;13.20;;;7.00;;
83290;SDS011;73194;48.866;9.316;2023-10-19T01:11:09;10.40;;;6.80;;
83290;SDS011;73194;48.866;9.316;2023-10-19T01:13:41;10.10;;;7.30;;
83290;SDS011;73194;48.866;9.316;2023-10-19T01:16:14;10.50;;;6.30;;
83290;SDS011;73194;48.866;9.316;2023-10-19T01:18:48;11.30;;;6.40;;
83290;SDS011;73194;48.866;9.316;2023-10-19T01:21:20;9.60;;;5.60;;
83290;SDS011;73194;48.866;9.316;2023-10-19T01:23:54;8.90;;;5.30;;
83290;SDS011;73194;48.866;9.316;2023-10-19T01:26:25;8.50;;;4.90;;
83290;SDS011;73194;48.866;9.316;2023-10-19T01:28:54;9.60;;;5.00;;
83290;SDS011;73194;48.866;9.316;2023-10-19T01:31:27;9.60;;;4.70;;
83290;SDS011;73194;48.866;9.316;2023-10-19T01:34:04;9.80;;;4.60;;
83290;SDS011;73194;48.866;9.316;2023-10-19T01:36:35;8.00;;;4.50;;
83290;SDS011;73194;48.866;9.316;2023-10-19T01:39:08;8.60;;;4.30;;
83290;SDS011;73194;48.866;9.316;2023-10-19T01:41:38;8.30;;;4.20;;
83290;SDS011;73194;48.866;9.316;2023-10-19T01:44:08;8.30;;;4.30;;
83290;SDS011;73194;48.866;9.316;2023-10-19T01:46:39;7.60;;;3.80;;
83290;SDS011;73194;48.866;9.316;2023-10-19T01:49:10;9.10;;;4.10;;
83290;SDS011;73194;48.866;9.316;2023-10-19T01:51:39;7.80;;;4.10;;
83290;SDS011;73194;48.866;9.316;2023-10-19T01:54:10;8.00;;;4.10;;
83290;SDS011;73194;48.866;9.316;2023-10-19T01:56:41;8.40;;;4.50;;
83290;SDS011;73194;48.866;9.316;2023-10-19T01:59:10;7.90;;;4.30;;
83290;SDS011;73194;48.866;9.316;2023-10-19T02:01:42;9.60;;;4.20;;
83290;SDS011;73194;48.866;9.316;2023-10-19T02:04:12;7.80;;;4.40;;
83290;SDS011;73194;48.866;9.316;2023-10-19T02:06:41;8.80;;;4.90;;
83290;SDS011;73194;48.866;9.316;2023-10-19T02:09:13;7.90;;;4.80;;
83290;SDS011;73194;48.866;9.316;2023-10-19T02:11:48;9.50;;;5.20;;
83290;SDS011;73194;48.866;9.316;2023-10-19T02:14:19;10.00;;;5.50;;
83290;SDS011;73194;48.866;9.316;2023-10-19T02:16:50;9.80;;;5.60;;
83290;SDS011;73194;48.866;9.316;2023-10-19T02:19:23;9.00;;;5.30;;
83290;SDS011;73194;48.866;9.316;2023-10-19T02:21:54;9.30;;;5.90;;
83290;SDS011;73194;48.866;9.316;2023-10-19T02:24:25;9.80;;;6.10;;
83290;SDS011;73194;48.866;9.316;2023-10-19T02:26:56;9.90;;;5.90;;
83290;SDS011;73194;48.866;9.316;2023-10-19T02:29:27;9.40;;;6.20;;
83290;SDS011;73194;48.866;9.316;2023-10-19T02:31:57;10.70;;;6.20;;
83290;SDS011;73194;48.866;9.316;2023-10-19T02:34:30;9.90;;;6.50;;
83290;SDS011;73194;48.866;9.316;2023-10-19T02:37:01;11.40;;;7.40;;
83290;SDS011;73194;48.866;9.316;2023-10-19T02:39:30;9.30;;;5.90;;
83290;SDS011;73194;48.866;9.316;2023-10-19T02:42:00;9.50;;;6.00;;
83290;SDS011;73194;48.866;9.316;2023-10-19T02:44:29;10.40;;;5.80;;
83290;SDS011;73194;48.866;9.316;2023-10-19T02:46:59;9.70;;;5.70;;
83290;SDS011;73194;48.866;9.316;2023-10-19T02:49:35;12.20;;;6.50;;
83290;SDS011;73194;48.866;9.316;2023-10-19T02:52:05;10.30;;;6.00;;
83290;SDS011;73194;48.866;9.316;2023-10-19T02:54:36;11.30;;;6.40;;
83290;SDS011;73194;48.866;9.316;2023-10-19T02:57:06;10.90;;;6.10;;
83290;SDS011;73194;48.866;9.316;2023-10-19T02:59:38;10.10;;;6.60;;
83290;SDS011;73194;48.866;9.316;2023-10-19T03:02:07;10.10;;;6.30;;
83290;SDS011;73194;48.866;9.316;2023-10-19T03:04:43;9.00;;;6.20;;
83290;SDS011;73194;48.866;9.316;2023-10-19T03:07:12;10.40;;;6.40;;
83290;SDS011;73194;48.866;9.316;2023-10-19T03:09:42;9.20;;;5.60;;
83290;SDS011;73194;48.866;9.316;2023-10-19T03:12:16;9.40;;;5.50;;
83290;SDS011;73194;48.866;9.316;2023-10-19T03:14:45;11.70;;;7.00;;
83290;SDS011;73194;48.866;9.316;2023-10-19T03:17:14;9.00;;;6.00;;
83290;SDS011;73194;48.866;9.316;2023-10-19T03:19:44;9.70;;;6.50;;
83290;SDS011;73194;48.866;9.316;2023-10-19T03:22:14;10.50;;;6.50;;
83290;SDS011;73194;48.866;9.316;2023-10-19T03:24:45;11.80;;;6.30;;
83290;SDS011;73194;48.866;9.316;2023-10-19T03:27:24;9.90;;;5.90;;
83290;SDS011;73194;48.866;9.316;2023-10-19T03:29:53;8.80;;;5.40;;
83290;SDS011;73194;48.866;9.316;2023-10-19T03:32:26;11.20;;;6.20;;
83290;SDS011;73194;48.866;9.316;2023-10-19T03:34:58;9.40;;;6.40;;
83290;SDS011;73194;48.866;9.316;2023-10-19T03:37:30;10.70;;;6.30;;
83290;SDS011;73194;48.866;9.316;2023-10-19T03:40:01;11.90;;;6.70;;
83290;SDS011;73194;48.866;9.316;2023-10-19T03:42:33;11.10;;;7.20;;
83290;SDS011;73194;48.866;9.316;2023-10-19T03:45:08;10.60;;;6.70;;
83290;SDS011;73194;48.866;9.316;2023-10-19T03:50:10;11.50;;;7.60;;
83290;SDS011;73194;48.866;9.316;2023-10-19T03:52:46;10.70;;;6.30;;
83290;SDS011;73194;48.866;9.316;2023-10-19T03:55:15;10.50;;;6.20;;
83290;SDS011;73194;48.866;9.316;2023-10-19T03:57:45;11.40;;;6.00;;
83290;SDS011;73194;48.866;9.316;2023-10-19T04:00:17;8.90;;;5.80;;
83290;SDS011;73194;48.866;9.316;2023-10-19T04:02:51;9.70;;;6.70;;
83290;SDS011;73194;48.866;9.316;2023-10-19T04:05:22;9.30;;;5.90;;
83290;SDS011;73194;48.866;9.316;2023-10-19T04:07:52;10.40;;;6.20;;
83290;SDS011;73194;48.866;9.316;2023-10-19T04:10:23;10.30;;;6.60;;
83290;SDS011;73194;48.866;9.316;2023-10-19T04:13:07;10.40;;;6.10;;
83290;SDS011;73194;48.866;9.316;2023-10-19T04:15:37;9.60;;;5.10;;
83290;SDS011;73194;48.866;9.316;2023-10-19T04:18:07;9.40;;;5.10;;
83290;SDS011;73194;48.866;9.316;2023-10-19T04:20:37;10.80;;;5.70;;
83290;SDS011;73194;48.866;9.316;2023-10-19T04:23:24;10.80;;;6.20;;
83290;SDS011;73194;48.866;9.316;2023-10-19T04:25:55;9.10;;;5.40;;
83290;SDS011;73194;48.866;9.316;2023-10-19T04:28:24;11.50;;;6.20;;
83290;SDS011;73194;48.866;9.316;2023-10-19T04:31:04;10.90;;;6.00;;
83290;SDS011;73194;48.866;9.316;2023-10-19T04:33:33;10.00;;;5.90;;
83290;SDS011;73194;48.866;9.316;2023-10-19T04:36:03;10.90;;;6.00;;
83290;SDS011;73194;48.866;9.316;2023-10-19T04:38:37;10.90;;;5.90;;
83290;SDS011;73194;48.866;9.316;2023-10-19T04:41:08;10.20;;;6.60;;
83290;SDS011;73194;48.866;9.316;2023-10-19T04:43:38;10.30;;;6.00;;
83290;SDS011;73194;48.866;9.316;2023-10-19T04:46:10;9.80;;;6.10;;
83290;SDS011;73194;48.866;9.316;2023-10-19T04:48:40;8.10;;;4.60;;
83290;SDS011;73194;48.866;9.316;2023-10-19T04:51:09;8.50;;;4.90;;
83290;SDS011;73194;48.866;9.316;2023-10-19T04:53:38;9.70;;;5.10;;
83290;SDS011;73194;48.866;9.316;2023-10-19T04:56:08;9.90;;;5.00;;
83290;SDS011;73194;48.866;9.316;2023-10-19T04:58:39;10.70;;;4.50;;
83290;SDS011;73194;48.866;9.316;2023-10-19T05:01:08;8.90;;;5.20;;
83290;SDS011;73194;48.866;9.316;2023-10-19T05:03:38;10.50;;;4.70;;
83290;SDS011;73194;48.866;9.316;2023-10-19T05:06:08;9.50;;;4.50;;
83290;SDS011;73194;48.866;9.316;2023-10-19T05:08:37;7.20;;;4.40;;
83290;SDS011;73194;48.866;9.316;2023-10-19T05:11:06;8.30;;;5.20;;
83290;SDS011;73194;48.866;9.316;2023-10-19T05:13:35;8.50;;;5.50;;
83290;SDS011;73194;48.866;9.316;2023-10-19T05:16:05;10.40;;;5.40;;
83290;SDS011;73194;48.866;9.316;2023-10-19T05:18:34;9.40;;;5.70;;
83290;SDS011;73194;48.866;9.316;2023-10-19T05:21:04;9.10;;;5.70;;
83290;SDS011;73194;48.866;9.316;2023-10-19T05:23:33;8.80;;;4.60;;
83290;SDS011;73194;48.866;9.316;2023-10-19T05:26:03;7.90;;;4.50;;
83290;SDS011;73194;48.866;9.316;2023-10-19T05:28:33;7.60;;;4.40;;
83290;SDS011;73194;48.866;9.316;2023-10-19T05:31:02;8.60;;;4.70;;
83290;SDS011;73194;48.866;9.316;2023-10-19T05:33:31;8.20;;;5.00;;
83290;SDS011;73194;48.866;9.316;2023-10-19T05:36:00;10.10;;;5.30;;
83290;SDS011;73194;48.866;9.316;2023-10-19T05:38:30;9.60;;;5.30;;
83290;SDS011;73194;48.866;9.316;2023-10-19T05:40:59;10.90;;;5.50;;
83290;SDS011;73194;48.866;9.316;2023-10-19T05:43:29;9.80;;;5.10;;
83290;SDS011;73194;48.866;9.316;2023-10-19T05:45:59;10.60;;;5.40;;
83290;SDS011;73194;48.866;9.316;2023-10-19T05:48:29;9.60;;;5.60;;
83290;SDS011;73194;48.866;9.316;2023-10-19T05:50:58;9.50;;;6.10;;
83290;SDS011;73194;48.866;9.316;2023-10-19T05:53:27;10.80;;;6.70;;
83290;SDS011;73194;48.866;9.316;2023-10-19T05:55:56;10.60;;;6.50;;
83290;SDS011;73194;48.866;9.316;2023-10-19T05:58:25;9.60;;;6.00;;
83290;SDS011;73194;48.866;9.316;2023-10-19T06:00:54;9.90;;;6.00;;
83290;SDS011;73194;48.866;9.316;2023-10-19T06:03:27;10.90;;;6.60;;
83290;SDS011;73194;48.866;9.316;2023-10-19T06:05:56;10.90;;;6.00;;
83290;SDS011;73194;48.866;9.316;2023-10-19T06:08:25;12.40;;;7.30;;
83290;SDS011;73194;48.866;9.316;2023-10-19T06:10:55;11.50;;;6.80;;
83290;SDS011;73194;48.866;9.316;2023-10-19T06:13:24;12.20;;;6.70;;
83290;SDS011;73194;48.866;9.316;2023-10-19T06:15:53;10.50;;;6.20;;
83290;SDS011;73194;48.866;9.316;2023-10-19T06:18:22;11.30;;;6.40;;
83290;SDS011;73194;48.866;9.316;2023-10-19T06:20:51;9.00;;;5.40;;
83290;SDS011;73194;48.866;9.316;2023-10-19T06:23:21;8.90;;;5.40;;
83290;SDS011;73194;48.866;9.316;2023-10-19T06:25:50;10.80;;;5.70;;
83290;SDS011;73194;48.866;9.316;2023-10-19T06:28:19;8.00;;;4.40;;
83290;SDS011;73194;48.866;9.316;2023-10-19T06:30:48;10.00;;;5.50;;
83290;SDS011;73194;48.866;9.316;2023-10-19T06:33:18;10.70;;;6.20;;
83290;SDS011;73194;48.866;9.316;2023-10-19T06:35:49;8.50;;;4.10;;
83290;SDS011;73194;48.866;9.316;2023-10-19T06:38:18;9.60;;;5.50;;
83290;SDS011;73194;48.866;9.316;2023-10-19T06:40:47;11.40;;;7.00;;
83290;SDS011;73194;48.866;9.316;2023-10-19T06:43:16;12.20;;;7.90;;
83290;SDS011;73194;48.866;9.316;2023-10-19T06:45:47;11.00;;;7.70;;
83290;SDS011;73194;48.866;9.316;2023-10-19T06:48:17;13.30;;;8.60;;
83290;SDS011;73194;48.866;9.316;2023-10-19T06:50:46;11.30;;;8.00;;
83290;SDS011;73194;48.866;9.316;2023-10-19T06:53:16;14.70;;;7.60;;
83290;SDS011;73194;48.866;9.316;2023-10-19T06:55:45;11.10;;;8.00;;
83290;SDS011;73194;48.866;9.316;2023-10-19T06:58:15;11.80;;;8.60;;
83290;SDS011;73194;48.866;9.316;2023-10-19T07:00:46;10.10;;;7.80;;
83290;SDS011;73194;48.866;9.316;2023-10-19T07:03:22;12.50;;;9.00;;
83290;SDS011;73194;48.866;9.316;2023-10-19T07:05:52;12.90;;;8.40;;
83290;SDS011;73194;48.866;9.316;2023-10-19T07:08:22;13.00;;;7.60;;
83290;SDS011;73194;48.866;9.316;2023-10-19T07:10:53;12.50;;;8.40;;
83290;SDS011;73194;48.866;9.316;2023-10-19T07:13:22;11.70;;;8.30;;
83290;SDS011;73194;48.866;9.316;2023-10-19T07:15:52;13.80;;;8.60;;
83290;SDS011;73194;48.866;9.316;2023-10-19T07:18:21;12.30;;;8.20;;
83290;SDS011;73194;48.866;9.316;2023-10-19T07:20:51;11.10;;;8.20;;
83290;SDS011;73194;48.866;9.316;2023-10-19T07:23:28;11.10;;;7.90;;
83290;SDS011;73194;48.866;9.316;2023-10-19T07:25:58;12.50;;;8.60;;
83290;SDS011;73194;48.866;9.316;2023-10-19T07:28:27;12.00;;;8.00;;
83290;SDS011;73194;48.866;9.316;2023-10-19T07:30:57;13.00;;;8.90;;
83290;SDS011;73194;48.866;9.316;2023-10-19T07:33:27;11.20;;;7.20;;
83290;SDS011;73194;48.866;9.316;2023-10-19T07:35:57;11.60;;;8.20;;
83290;SDS011;73194;48.866;9.316;2023-10-19T07:38:33;12.40;;;8.30;;
83290;SDS011;73194;48.866;9.316;2023-10-19T07:41:02;12.00;;;8.00;;
83290;SDS011;73194;48.866;9.316;2023-10-19T07:43:32;11.40;;;8.00;;
83290;SDS011;73194;48.866;9.316;2023-10-19T07:46:01;12.00;;;7.90;;
83290;SDS011;73194;48.866;9.316;2023-10-19T07:48:30;13.40;;;7.90;;
83290;SDS011;73194;48.866;9.316;2023-10-19T07:50:59;13.70;;;10.50;;
83290;SDS011;73194;48.866;9.316;2023-10-19T07:53:29;13.40;;;8.10;;
83290;SDS011;73194;48.866;9.316;2023-10-19T07:55:58;12.70;;;8.00;;
83290;SDS011;73194;48.866;9.316;2023-10-19T07:58:27;18.30;;;11.40;;
83290;SDS011;73194;48.866;9.316;2023-10-19T08:00:58;16.80;;;11.10;;
83290;SDS011;73194;48.866;9.316;2023-10-19T08:03:27;15.40;;;11.40;;
83290;SDS011;73194;48.866;9.316;2023-10-19T08:05:57;16.10;;;10.80;;
83290;SDS011;73194;48.866;9.316;2023-10-19T08:08:26;15.30;;;10.20;;
83290;SDS011;73194;48.866;9.316;2023-10-19T08:11:00;12.70;;;8.10;;
83290;SDS011;73194;48.866;9.316;2023-10-19T08:13:30;11.60;;;7.70;;
83290;SDS011;73194;48.866;9.316;2023-10-19T08:15:59;10.50;;;7.30;;
83290;SDS011;73194;48.866;9.316;2023-10-19T08:18:28;11.90;;;7.70;;
83290;SDS011;73194;48.866;9.316;2023-10-19T08:20:58;10.40;;;7.40;;
83290;SDS011;73194;48.866;9.316;2023-10-19T08:23:28;12.10;;;7.60;;
83290;SDS011;73194;48.866;9.316;2023-10-19T08:25:58;11.70;;;8.60;;
83290;SDS011;73194;48.866;9.316;2023-10-19T08:28:27;11.60;;;7.40;;
83290;SDS011;73194;48.866;9.316;2023-10-19T08:30:56;12.10;;;7.00;;
83290;SDS011;73194;48.866;9.316;2023-10-19T08:33:27;10.80;;;6.30;;
83290;SDS011;73194;48.866;9.316;2023-10-19T08:35:59;11.40;;;6.80;;
83290;SDS011;73194;48.866;9.316;2023-10-19T08:38:28;10.30;;;6.20;;
83290;SDS011;73194;48.866;9.316;2023-10-19T08:40:59;9.20;;;6.30;;
83290;SDS011;73194;48.866;9.316;2023-10-19T08:43:29;9.70;;;6.40;;
83290;SDS011;73194;48.866;9.316;2023-10-19T08:46:00;10.30;;;6.10;;
83290;SDS011;73194;48.866;9.316;2023-10-19T08:48:29;11.00;;;7.70;;
83290;SDS011;73194;48.866;9.316;2023-10-19T08:51:03;12.10;;;7.90;;
83290;SDS011;73194;48.866;9.316;2023-10-19T08:53:38;9.80;;;6.40;;
83290;SDS011;73194;48.866;9.316;2023-10-19T08:56:08;11.90;;;6.40;;
83290;SDS011;73194;48.866;9.316;2023-10-19T08:58:38;11.70;;;6.60;;
83290;SDS011;73194;48.866;9.316;2023-10-19T09:01:08;9.50;;;5.50;;
83290;SDS011;73194;48.866;9.316;2023-10-19T09:03:38;10.70;;;6.00;;
83290;SDS011;73194;48.866;9.316;2023-10-19T09:06:08;9.40;;;5.70;;
83290;SDS011;73194;48.866;9.316;2023-10-19T09:08:41;9.00;;;5.40;;
83290;SDS011;73194;48.866;9.316;2023-10-19T09:11:14;9.20;;;5.10;;
83290;SDS011;73194;48.866;9.316;2023-10-19T09:13:47;9.40;;;5.90;;
83290;SDS011;73194;48.866;9.316;2023-10-19T09:16:18;10.40;;;5.80;;
83290;SDS011;73194;48.866;9.316;2023-10-19T09:18:48;8.80;;;5.60;;
83290;SDS011;73194;48.866;9.316;2023-10-19T09:21:18;9.70;;;5.70;;
83290;SDS011;73194;48.866;9.316;2023-10-19T09:23:52;9.20;;;5.70;;
83290;SDS011;73194;48.866;9.316;2023-10-19T09:26:22;10.90;;;5.90;;
83290;SDS011;73194;48.866;9.316;2023-10-19T09:28:52;8.70;;;5.70;;
83290;SDS011;73194;48.866;9.316;2023-10-19T09:31:21;8.50;;;4.50;;
83290;SDS011;73194;48.866;9.316;2023-10-19T09:33:51;7.20;;;4.10;;
83290;SDS011;73194;48.866;9.316;2023-10-19T09:36:21;7.20;;;3.50;;
83290;SDS011;73194;48.866;9.316;2023-10-19T09:38:56;5.90;;;2.90;;
83290;SDS011;73194;48.866;9.316;2023-10-19T09:41:25;6.20;;;2.70;;
83290;SDS011;73194;48.866;9.316;2023-10-19T09:43:57;5.90;;;2.90;;
83290;SDS011;73194;48.866;9.316;2023-10-19T09:46:31;5.80;;;2.40;;
83290;SDS011;73194;48.866;9.316;2023-10-19T09:49:03;5.20;;;2.30;;
83290;SDS011;73194;48.866;9.316;2023-10-19T09:51:34;5.60;;;2.10;;
83290;SDS011;73194;48.866;9.316;2023-10-19T09:54:04;5.70;;;2.20;;
83290;SDS011;73194;48.866;9.316;2023-10-19T09:56:40;4.30;;;1.90;;
83290;SDS011;73194;48.866;9.316;2023-10-19T09:59:13;4.60;;;2.10;;
83290;SDS011;73194;48.866;9.316;2023-10-19T10:02:04;5.20;;;2.00;;
83290;SDS011;73194;48.866;9.316;2023-10-19T10:04:39;5.10;;;2.00;;
83290;SDS011;73194;48.866;9.316;2023-10-19T10:07:11;4.70;;;1.90;;
83290;SDS011;73194;48.866;9.316;2023-10-19T10:09:42;5.80;;;1.70;;
83290;SDS011;73194;48.866;9.316;2023-10-19T10:12:16;4.80;;;1.80;;
83290;SDS011;73194;48.866;9.316;2023-10-19T10:14:53;4.90;;;1.60;;
83290;SDS011;73194;48.866;9.316;2023-10-19T10:17:25;5.60;;;1.90;;
83290;SDS011;73194;48.866;9.316;2023-10-19T10:19:55;4.30;;;1.70;;
83290;SDS011;73194;48.866;9.316;2023-10-19T10:22:26;5.50;;;2.10;;
83290;SDS011;73194;48.866;9.316;2023-10-19T10:24:55;4.10;;;1.70;;
83290;SDS011;73194;48.866;9.316;2023-10-19T10:27:24;4.90;;;1.90;;
83290;SDS011;73194;48.866;9.316;2023-10-19T10:29:57;4.70;;;1.80;;
83290;SDS011;73194;48.866;9.316;2023-10-19T10:32:45;7.00;;;2.10;;
83290;SDS011;73194;48.866;9.316;2023-10-19T10:40:46;6.20;;;1.90;;
83290;SDS011;73194;48.866;9.316;2023-10-19T10:43:16;5.30;;;1.90;;
83290;SDS011;73194;48.866;9.316;2023-10-19T10:48:16;5.00;;;2.00;;
83290;SDS011;73194;48.866;9.316;2023-10-19T10:50:46;4.80;;;1.90;;
83290;SDS011;73194;48.866;9.316;2023-10-19T10:53:16;5.10;;;2.00;;
83290;SDS011;73194;48.866;9.316;2023-10-19T10:55:45;6.20;;;3.00;;
83290;SDS011;73194;48.866;9.316;2023-10-19T10:58:16;7.70;;;3.10;;
83290;SDS011;73194;48.866;9.316;2023-10-19T11:00:46;6.70;;;3.70;;
83290;SDS011;73194;48.866;9.316;2023-10-19T11:03:17;6.40;;;2.60;;
83290;SDS011;73194;48.866;9.316;2023-10-19T11:05:48;7.30;;;2.60;;
83290;SDS011;73194;48.866;9.316;2023-10-19T11:08:17;4.70;;;2.10;;
83290;SDS011;73194;48.866;9.316;2023-10-19T11:10:47;5.80;;;2.70;;
83290;SDS011;73194;48.866;9.316;2023-10-19T11:13:17;5.70;;;2.10;;
83290;SDS011;73194;48.866;9.316;2023-10-19T11:15:52;5.70;;;2.00;;
83290;SDS011;73194;48.866;9.316;2023-10-19T11:18:29;6.40;;;2.30;;
83290;SDS011;73194;48.866;9.316;2023-10-19T11:21:00;5.40;;;2.30;;
83290;SDS011;73194;48.866;9.316;2023-10-19T11:23:41;6.30;;;2.20;;
83290;SDS011;73194;48.866;9.316;2023-10-19T11:26:12;6.20;;;2.20;;
83290;SDS011;73194;48.866;9.316;2023-10-19T11:28:41;6.10;;;2.20;;
83290;SDS011;73194;48.866;9.316;2023-10-19T11:31:17;5.80;;;2.50;;
83290;SDS011;73194;48.866;9.316;2023-10-19T11:33:48;6.70;;;2.10;;
83290;SDS011;73194;48.866;9.316;2023-10-19T11:36:19;5.90;;;2.60;;
83290;SDS011;73194;48.866;9.316;2023-10-19T11:38:49;5.20;;;2.30;;
83290;SDS011;73194;48.866;9.316;2023-10-19T11:41:19;5.70;;;2.20;;
83290;SDS011;73194;48.866;9.316;2023-10-19T11:43:49;4.50;;;2.10;;
83290;SDS011;73194;48.866;9.316;2023-10-19T11:46:19;5.80;;;2.10;;
83290;SDS011;73194;48.866;9.316;2023-10-19T11:48:49;5.80;;;2.40;;
83290;SDS011;73194;48.866;9.316;2023-10-19T11:51:18;5.10;;;2.60;;
83290;SDS011;73194;48.866;9.316;2023-10-19T11:53:47;5.90;;;2.50;;
83290;SDS011;73194;48.866;9.316;2023-10-19T11:56:17;8.50;;;2.60;;
83290;SDS011;73194;48.866;9.316;2023-10-19T11:58:47;7.20;;;2.70;;
83290;SDS011;73194;48.866;9.316;2023-10-19T12:01:16;7.40;;;3.50;;
83290;SDS011;73194;48.866;9.316;2023-10-19T12:03:46;7.10;;;3.00;;
83290;SDS011;73194;48.866;9.316;2023-10-19T12:06:15;6.80;;;3.00;;
83290;SDS011;73194;48.866;9.316;2023-10-19T12:08:46;6.60;;;2.80;;
83290;SDS011;73194;48.866;9.316;2023-10-19T12:11:16;5.90;;;2.90;;
83290;SDS011;73194;48.866;9.316;2023-10-19T12:13:46;7.10;;;2.70;;
83290;SDS011;73194;48.866;9.316;2023-10-19T12:16:15;6.10;;;2.70;;
83290;SDS011;73194;48.866;9.316;2023-10-19T12:18:46;6.90;;;2.40;;
83290;SDS011;73194;48.866;9.316;2023-10-19T12:21:16;7.20;;;3.60;;
83290;SDS011;73194;48.866;9.316;2023-10-19T12:23:54;5.70;;;3.00;;
83290;SDS011;73194;48.866;9.316;2023-10-19T12:26:23;5.40;;;2.40;;
83290;SDS011;73194;48.866;9.316;2023-10-19T12:28:52;6.10;;;2.70;;
83290;SDS011;73194;48.866;9.316;2023-10-19T12:31:22;7.00;;;2.60;;
83290;SDS011;73194;48.866;9.316;2023-10-19T12:33:51;7.00;;;2.60;;
83290;SDS011;73194;48.866;9.316;2023-10-19T12:36:20;8.40;;;2.90;;
83290;SDS011;73194;48.866;9.316;2023-10-19T12:38:57;8.00;;;2.80;;
83290;SDS011;73194;48.866;9.316;2023-10-19T12:41:28;6.60;;;2.70;;
83290;SDS011;73194;48.866;9.316;2023-10-19T12:43:58;7.10;;;3.20;;
83290;SDS011;73194;48.866;9.316;2023-10-19T12:46:29;5.70;;;2.60;;
83290;SDS011;73194;48.866;9.316;2023-10-19T12:48:58;7.00;;;2.70;;
83290;SDS011;73194;48.866;9.316;2023-10-19T12:51:27;7.20;;;2.90;;
83290;SDS011;73194;48.866;9.316;2023-10-19T12:53:56;5.40;;;2.50;;
83290;SDS011;73194;48.866;9.316;2023-10-19T12:56:29;6.30;;;2.50;;
83290;SDS011;73194;48.866;9.316;2023-10-19T13:01:34;5.40;;;2.60;;
83290;SDS011;73194;48.866;9.316;2023-10-19T13:04:04;7.00;;;2.80;;
83290;SDS011;73194;48.866;9.316;2023-10-19T13:06:40;6.00;;;2.40;;
83290;SDS011;73194;48.866;9.316;2023-10-19T13:09:10;6.20;;;2.20;;
83290;SDS011;73194;48.866;9.316;2023-10-19T13:11:42;5.60;;;2.90;;
83290;SDS011;73194;48.866;9.316;2023-10-19T13:14:11;5.20;;;2.30;;
83290;SDS011;73194;48.866;9.316;2023-10-19T13:16:42;5.20;;;2.10;;
83290;SDS011;73194;48.866;9.316;2023-10-19T13:19:11;5.80;;;2.00;;
83290;SDS011;73194;48.866;9.316;2023-10-19T13:21:42;8.70;;;2.80;;
83290;SDS011;73194;48.866;9.316;2023-10-19T13:24:11;5.10;;;1.80;;
83290;SDS011;73194;48.866;9.316;2023-10-19T13:26:41;6.00;;;2.70;;
83290;SDS011;73194;48.866;9.316;2023-10-19T13:29:13;4.80;;;2.00;;
83290;SDS011;73194;48.866;9.316;2023-10-19T13:31:43;5.10;;;1.90;;
83290;SDS011;73194;48.866;9.316;2023-10-19T13:34:17;6.00;;;2.40;;
83290;SDS011;73194;48.866;9.316;2023-10-19T13:36:47;6.60;;;2.40;;
83290;SDS011;73194;48.866;9.316;2023-10-19T13:39:18;7.60;;;3.70;;
83290;SDS011;73194;48.866;9.316;2023-10-19T13:41:47;6.00;;;3.10;;
83290;SDS011;73194;48.866;9.316;2023-10-19T13:44:16;7.40;;;3.10;;
83290;SDS011;73194;48.866;9.316;2023-10-19T13:46:48;7.70;;;2.90;;
83290;SDS011;73194;48.866;9.316;2023-10-19T13:49:17;5.90;;;2.60;;
83290;SDS011;73194;48.866;9.316;2023-10-19T13:51:49;6.10;;;2.60;;
83290;SDS011;73194;48.866;9.316;2023-10-19T13:54:19;6.30;;;2.70;;
83290;SDS011;73194;48.866;9.316;2023-10-19T13:56:48;5.90;;;3.00;;
83290;SDS011;73194;48.866;9.316;2023-10-19T13:59:17;6.90;;;3.30;;
83290;SDS011;73194;48.866;9.316;2023-10-19T14:01:47;6.80;;;2.90;;
83290;SDS011;73194;48.866;9.316;2023-10-19T14:04:16;7.40;;;3.30;;
83290;SDS011;73194;48.866;9.316;2023-10-19T14:06:46;8.50;;;3.70;;
83290;SDS011;73194;48.866;9.316;2023-10-19T14:09:18;7.90;;;3.40;;
83290;SDS011;73194;48.866;9.316;2023-10-19T14:11:49;6.40;;;3.10;;
83290;SDS011;73194;48.866;9.316;2023-10-19T14:14:19;6.70;;;3.40;;
83290;SDS011;73194;48.866;9.316;2023-10-19T14:16:48;8.80;;;4.00;;
83290;SDS011;73194;48.866;9.316;2023-10-19T14:19:18;7.60;;;3.70;;
83290;SDS011;73194;48.866;9.316;2023-10-19T14:21:47;8.60;;;3.70;;
83290;SDS011;73194;48.866;9.316;2023-10-19T14:24:17;6.20;;;2.70;;
83290;SDS011;73194;48.866;9.316;2023-10-19T14:26:47;6.00;;;2.90;;
83290;SDS011;73194;48.866;9.316;2023-10-19T14:29:16;9.90;;;4.40;;
83290;SDS011;73194;48.866;9.316;2023-10-19T14:31:45;6.80;;;2.70;;
83290;SDS011;73194;48.866;9.316;2023-10-19T14:34:14;5.80;;;3.00;;
83290;SDS011;73194;48.866;9.316;2023-10-19T14:36:44;7.30;;;3.80;;
83290;SDS011;73194;48.866;9.316;2023-10-19T14:39:14;7.10;;;3.10;;
83290;SDS011;73194;48.866;9.316;2023-10-19T14:41:46;8.20;;;3.70;;
83290;SDS011;73194;48.866;9.316;2023-10-19T14:44:16;7.50;;;4.00;;
83290;SDS011;73194;48.866;9.316;2023-10-19T14:46:45;6.90;;;3.20;;
83290;SDS011;73194;48.866;9.316;2023-10-19T14:49:14;9.00;;;4.70;;
83290;SDS011;73194;48.866;9.316;2023-10-19T14:51:44;9.10;;;4.10;;
83290;SDS011;73194;48.866;9.316;2023-10-19T14:54:13;9.10;;;4.70;;
83290;SDS011;73194;48.866;9.316;2023-10-19T14:56:44;7.90;;;4.40;;
83290;SDS011;73194;48.866;9.316;2023-10-19T14:59:13;7.30;;;4.30;;
83290;SDS011;73194;48.866;9.316;2023-10-19T15:01:42;8.30;;;4.10;;
83290;SDS011;73194;48.866;9.316;2023-10-19T15:04:11;9.20;;;3.90;;
83290;SDS011;73194;48.866;9.316;2023-10-19T15:06:41;8.60;;;4.10;;
83290;SDS011;73194;48.866;9.316;2023-10-19T15:09:10;10.00;;;4.30;;
83290;SDS011;73194;48.866;9.316;2023-10-19T15:11:46;8.60;;;3.40;;
83290;SDS011;73194;48.866;9.316;2023-10-19T15:14:16;9.00;;;3.50;;
83290;SDS011;73194;48.866;9.316;2023-10-19T15:16:45;8.70;;;3.50;;
83290;SDS011;73194;48.866;9.316;2023-10-19T15:19:14;8.70;;;4.10;;